createdAt,value
2022-08-14T00:02:24.508Z,1012.55
2022-08-14T00:17:27.432Z,1012.47
2022-08-14T00:32:51.703Z,1012.60
2022-08-14T00:47:33.133Z,1012.43
2022-08-14T01:02:38.220Z,1012.39
2022-08-14T01:17:44.044Z,1012.45
2022-08-14T01:32:50.969Z,1012.39
2022-08-14T01:47:51.475Z,1012.39
2022-08-14T02:02:52.906Z,1012.44
2022-08-14T02:17:53.415Z,1012.30
2022-08-14T02:32:53.492Z,1012.14
2022-08-14T02:47:57.422Z,1011.99
2022-08-14T03:02:59.431Z,1011.84
2022-08-14T03:17:59.930Z,1011.86
2022-08-14T03:33:00.033Z,1011.78
2022-08-14T03:48:01.859Z,1011.72
2022-08-14T04:03:03.189Z,1011.60
2022-08-14T04:18:03.292Z,1011.67
2022-08-14T04:33:07.386Z,1011.82
2022-08-14T04:48:10.418Z,1011.63
2022-08-14T05:03:10.671Z,1011.58
2022-08-14T05:18:17.425Z,1011.36
2022-08-14T05:33:18.120Z,1011.44
2022-08-14T05:48:32.679Z,1011.35
2022-08-14T06:03:23.812Z,1011.30
2022-08-14T06:18:26.697Z,1011.21
2022-08-14T06:35:11.452Z,1011.07
2022-08-14T06:48:37.892Z,1011.02
2022-08-14T07:03:42.459Z,1010.86
2022-08-14T07:18:43.207Z,1010.90
2022-08-14T07:33:45.639Z,1010.72
2022-08-14T07:48:53.171Z,1010.70
2022-08-14T08:03:53.430Z,1010.49
2022-08-14T08:19:02.913Z,1010.40
2022-08-14T08:34:05.107Z,1010.43
2022-08-14T08:49:06.710Z,1010.30
2022-08-14T09:04:17.292Z,1010.20
2022-08-14T09:19:12.852Z,1009.99
2022-08-14T09:34:26.940Z,1009.97
2022-08-14T09:49:18.049Z,1009.80
2022-08-14T10:04:32.801Z,1009.70
2022-08-14T10:19:25.765Z,1009.47
2022-08-14T10:34:35.635Z,1009.25
2022-08-14T10:49:35.408Z,1008.90
2022-08-14T11:04:37.453Z,1008.71
2022-08-14T11:19:39.593Z,1008.67
2022-08-14T11:34:39.805Z,1008.59
2022-08-14T11:49:41.206Z,1008.44
2022-08-14T12:04:41.282Z,1008.26
2022-08-14T12:19:42.367Z,1008.11
2022-08-14T12:34:45.439Z,1007.82
2022-08-14T12:49:46.026Z,1007.79
2022-08-14T13:04:46.155Z,1007.54
2022-08-14T13:19:46.208Z,1007.35
2022-08-14T13:34:49.068Z,1007.05
2022-08-14T13:49:57.869Z,1006.75
2022-08-14T14:04:58.264Z,1006.41
2022-08-14T14:20:01.010Z,1006.30
2022-08-14T14:35:05.039Z,1006.15
2022-08-14T14:50:06.103Z,1006.01
2022-08-14T15:05:06.702Z,1005.82
2022-08-14T15:20:07.319Z,1005.84
2022-08-14T15:35:09.696Z,1005.72
2022-08-14T15:50:12.254Z,1005.60
2022-08-14T16:05:13.857Z,1005.43
2022-08-14T16:20:41.151Z,1005.22
2022-08-14T16:35:23.523Z,1005.05
2022-08-14T16:50:43.309Z,1004.99
2022-08-14T17:05:30.973Z,1004.93
2022-08-14T17:20:44.398Z,1004.71
2022-08-14T17:50:58.391Z,1004.79
2022-08-14T18:06:07.604Z,1004.70
2022-08-14T18:21:40.316Z,1004.79
2022-08-14T18:36:46.548Z,1004.87
2022-08-14T18:51:06.800Z,1004.99
2022-08-14T19:06:08.827Z,1005.09
2022-08-14T19:21:13.351Z,1005.31
2022-08-14T19:36:29.275Z,1005.35
2022-08-14T19:52:20.611Z,1005.29
2022-08-14T20:07:15.424Z,1005.20
2022-08-14T20:22:36.386Z,1005.08
2022-08-14T20:37:22.743Z,1005.12
2022-08-14T20:52:24.233Z,1005.11
2022-08-14T21:07:36.333Z,1005.13
2022-08-14T21:22:31.968Z,1005.17
2022-08-14T21:37:35.589Z,1004.96
2022-08-14T21:52:50.619Z,1004.91
2022-08-14T22:07:41.168Z,1004.81
2022-08-14T22:22:44.429Z,1004.82
2022-08-14T22:37:45.131Z,1004.67
2022-08-14T22:52:49.382Z,1004.53
2022-08-14T23:08:59.357Z,1004.58
2022-08-14T23:22:57.031Z,1004.41
2022-08-14T23:37:58.154Z,1004.49
2022-08-14T23:53:07.448Z,1004.48
